sensor_id;sensor_type;location;lat;lon;timestamp;pressure;altitude;pressure_sealevel;temperature;humidity
929;BME280;451;47.988;7.842;2023-12-20T00:00:10;98724.84;;;7.80;100.00
929;BME280;451;47.988;7.842;2023-12-20T00:09:15;98738.94;;;7.96;100.00
929;BME280;451;47.988;7.842;2023-12-20T00:18:18;98698.47;;;7.91;100.00
929;BME280;451;47.988;7.842;2023-12-20T00:27:23;98685.25;;;7.92;100.00
929;BME280;451;47.988;7.842;2023-12-20T00:36:26;98681.22;;;7.98;100.00
929;BME280;451;47.988;7.842;2023-12-20T00:45:30;98718.66;;;7.81;100.00
929;BME280;451;47.988;7.842;2023-12-20T00:54:33;98697.13;;;7.32;100.00
929;BME280;451;47.988;7.842;2023-12-20T01:03:37;98701.69;;;6.83;100.00
929;BME280;451;47.988;7.842;2023-12-20T01:12:40;98710.09;;;6.77;100.00
929;BME280;451;47.988;7.842;2023-12-20T01:21:45;98714.22;;;6.70;100.00
929;BME280;451;47.988;7.842;2023-12-20T01:30:48;98700.50;;;6.49;100.00
929;BME280;451;47.988;7.842;2023-12-20T01:39:52;98715.72;;;6.63;100.00
929;BME280;451;47.988;7.842;2023-12-20T01:48:55;98724.81;;;6.59;100.00
929;BME280;451;47.988;7.842;2023-12-20T01:58:00;98717.94;;;6.58;100.00
929;BME280;451;47.988;7.842;2023-12-20T02:07:04;98704.19;;;6.56;100.00
929;BME280;451;47.988;7.842;2023-12-20T02:16:08;98714.63;;;6.56;100.00
929;BME280;451;47.988;7.842;2023-12-20T02:25:13;98704.19;;;6.56;100.00
929;BME280;451;47.988;7.842;2023-12-20T02:34:16;98690.72;;;6.51;100.00
929;BME280;451;47.988;7.842;2023-12-20T02:43:20;98690.72;;;6.51;100.00
929;BME280;451;47.988;7.842;2023-12-20T02:52:24;98708.34;;;6.49;100.00
929;BME280;451;47.988;7.842;2023-12-20T03:01:29;98713.84;;;6.56;100.00
929;BME280;451;47.988;7.842;2023-12-20T03:10:32;98720.69;;;6.47;100.00
929;BME280;451;47.988;7.842;2023-12-20T03:19:36;98722.91;;;6.42;100.00
929;BME280;451;47.988;7.842;2023-12-20T03:28:39;98742.69;;;6.44;100.00
929;BME280;451;47.988;7.842;2023-12-20T03:37:43;98733.06;;;6.45;100.00
929;BME280;451;47.988;7.842;2023-12-20T03:46:46;98746.13;;;6.45;100.00
929;BME280;451;47.988;7.842;2023-12-20T03:55:52;98745.16;;;6.46;100.00
929;BME280;451;47.988;7.842;2023-12-20T04:04:55;98757.81;;;6.41;100.00
929;BME280;451;47.988;7.842;2023-12-20T04:13:59;98749.03;;;6.42;100.00
929;BME280;451;47.988;7.842;2023-12-20T04:23:02;98711.09;;;6.28;100.00
929;BME280;451;47.988;7.842;2023-12-20T04:32:07;98768.13;;;6.52;100.00
929;BME280;451;47.988;7.842;2023-12-20T04:41:10;98777.47;;;6.55;100.00
929;BME280;451;47.988;7.842;2023-12-20T04:50:18;98797.38;;;6.46;100.00
929;BME280;451;47.988;7.842;2023-12-20T04:59:23;98754.78;;;6.36;100.00
929;BME280;451;47.988;7.842;2023-12-20T05:08:27;98785.16;;;6.56;100.00
929;BME280;451;47.988;7.842;2023-12-20T05:17:30;98791.63;;;6.52;100.00
929;BME280;451;47.988;7.842;2023-12-20T05:26:35;98796.28;;;6.58;100.00
929;BME280;451;47.988;7.842;2023-12-20T05:35:38;98803.97;;;6.69;100.00
929;BME280;451;47.988;7.842;2023-12-20T05:44:42;98804.53;;;6.63;100.00
929;BME280;451;47.988;7.842;2023-12-20T05:53:45;98812.25;;;6.65;100.00
929;BME280;451;47.988;7.842;2023-12-20T06:02:50;98825.88;;;6.78;100.00
929;BME280;451;47.988;7.842;2023-12-20T06:11:53;98826.56;;;6.80;100.00
929;BME280;451;47.988;7.842;2023-12-20T06:20:57;98840.44;;;6.90;100.00
929;BME280;451;47.988;7.842;2023-12-20T06:30:00;98842.78;;;6.83;100.00
929;BME280;451;47.988;7.842;2023-12-20T06:39:05;98850.75;;;6.92;100.00
929;BME280;451;47.988;7.842;2023-12-20T06:48:07;98862.03;;;7.02;100.00
929;BME280;451;47.988;7.842;2023-12-20T06:57:14;98858.88;;;6.79;100.00
929;BME280;451;47.988;7.842;2023-12-20T07:06:17;98883.22;;;7.08;100.00
929;BME280;451;47.988;7.842;2023-12-20T07:15:22;98889.69;;;7.14;100.00
929;BME280;451;47.988;7.842;2023-12-20T07:24:25;98900.25;;;7.12;100.00
929;BME280;451;47.988;7.842;2023-12-20T07:33:30;98929.31;;;7.19;100.00
929;BME280;451;47.988;7.842;2023-12-20T07:42:33;98925.88;;;7.09;100.00
929;BME280;451;47.988;7.842;2023-12-20T07:51:37;98895.06;;;7.03;100.00
929;BME280;451;47.988;7.842;2023-12-20T08:00:40;98949.13;;;7.31;100.00
929;BME280;451;47.988;7.842;2023-12-20T08:09:45;98936.19;;;7.39;100.00
929;BME280;451;47.988;7.842;2023-12-20T08:18:50;98931.50;;;7.33;100.00
929;BME280;451;47.988;7.842;2023-12-20T08:27:55;98961.94;;;7.53;100.00
929;BME280;451;47.988;7.842;2023-12-20T08:36:58;98971.44;;;7.54;100.00
929;BME280;451;47.988;7.842;2023-12-20T08:46:03;98992.22;;;7.65;100.00
929;BME280;451;47.988;7.842;2023-12-20T08:55:06;99005.00;;;7.78;100.00
929;BME280;451;47.988;7.842;2023-12-20T09:04:11;99008.47;;;7.79;100.00
929;BME280;451;47.988;7.842;2023-12-20T09:13:14;99007.06;;;7.84;100.00
929;BME280;451;47.988;7.842;2023-12-20T09:22:18;99029.13;;;7.91;100.00
929;BME280;451;47.988;7.842;2023-12-20T09:31:21;99044.53;;;7.75;100.00
929;BME280;451;47.988;7.842;2023-12-20T09:40:26;99042.75;;;7.47;100.00
929;BME280;451;47.988;7.842;2023-12-20T09:49:30;99011.47;;;7.26;100.00
929;BME280;451;47.988;7.842;2023-12-20T09:58:36;99033.66;;;7.60;100.00
929;BME280;451;47.988;7.842;2023-12-20T10:07:39;99005.53;;;7.05;100.00
929;BME280;451;47.988;7.842;2023-12-20T10:16:44;99030.47;;;7.57;100.00
929;BME280;451;47.988;7.842;2023-12-20T10:25:56;99037.78;;;7.53;100.00
929;BME280;451;47.988;7.842;2023-12-20T10:35:01;99034.59;;;7.21;100.00
929;BME280;451;47.988;7.842;2023-12-20T10:44:04;99017.25;;;7.87;100.00
929;BME280;451;47.988;7.842;2023-12-20T10:53:09;99013.41;;;7.62;100.00
929;BME280;451;47.988;7.842;2023-12-20T11:02:13;99026.91;;;7.48;100.00
929;BME280;451;47.988;7.842;2023-12-20T11:11:23;99001.00;;;7.26;99.76
929;BME280;451;47.988;7.842;2023-12-20T11:20:35;99005.84;;;7.40;97.75
929;BME280;451;47.988;7.842;2023-12-20T11:29:41;98990.56;;;7.45;100.00
929;BME280;451;47.988;7.842;2023-12-20T11:38:57;98996.91;;;7.62;92.48
929;BME280;451;47.988;7.842;2023-12-20T11:48:03;98990.63;;;8.11;84.95
929;BME280;451;47.988;7.842;2023-12-20T11:57:06;98977.81;;;8.18;82.97
929;BME280;451;47.988;7.842;2023-12-20T12:06:10;98973.88;;;7.85;81.29
929;BME280;451;47.988;7.842;2023-12-20T12:15:15;98969.59;;;7.84;84.22
929;BME280;451;47.988;7.842;2023-12-20T12:24:21;98965.69;;;8.07;78.68
929;BME280;451;47.988;7.842;2023-12-20T12:33:24;98940.22;;;8.46;79.72
929;BME280;451;47.988;7.842;2023-12-20T12:42:29;98978.63;;;8.92;78.37
929;BME280;451;47.988;7.842;2023-12-20T12:51:32;98980.66;;;9.16;73.18
929;BME280;451;47.988;7.842;2023-12-20T13:00:36;98978.31;;;8.40;72.23
929;BME280;451;47.988;7.842;2023-12-20T13:09:39;98955.41;;;8.42;74.61
929;BME280;451;47.988;7.842;2023-12-20T13:18:44;98973.34;;;8.28;74.19
929;BME280;451;47.988;7.842;2023-12-20T13:27:47;98963.19;;;8.15;73.57
929;BME280;451;47.988;7.842;2023-12-20T13:36:51;98968.97;;;8.19;74.29
929;BME280;451;47.988;7.842;2023-12-20T13:45:55;98957.00;;;8.16;74.43
929;BME280;451;47.988;7.842;2023-12-20T13:54:59;98942.50;;;8.12;75.00
929;BME280;451;47.988;7.842;2023-12-20T14:04:02;98965.41;;;8.57;76.47
929;BME280;451;47.988;7.842;2023-12-20T14:13:07;98950.84;;;8.44;77.64
929;BME280;451;47.988;7.842;2023-12-20T14:22:10;98944.72;;;8.17;80.76
929;BME280;451;47.988;7.842;2023-12-20T14:31:14;98948.41;;;7.87;83.66
929;BME280;451;47.988;7.842;2023-12-20T14:40:18;98948.28;;;7.69;85.09
929;BME280;451;47.988;7.842;2023-12-20T14:49:23;98942.38;;;7.67;84.10
929;BME280;451;47.988;7.842;2023-12-20T14:58:26;98949.28;;;7.49;87.63
929;BME280;451;47.988;7.842;2023-12-20T15:07:32;98940.31;;;7.32;87.40
929;BME280;451;47.988;7.842;2023-12-20T15:16:35;98947.19;;;7.14;90.28
929;BME280;451;47.988;7.842;2023-12-20T15:25:40;98950.03;;;6.82;95.02
929;BME280;451;47.988;7.842;2023-12-20T15:34:43;98947.84;;;6.77;95.40
929;BME280;451;47.988;7.842;2023-12-20T15:43:47;98961.78;;;6.57;96.13
929;BME280;451;47.988;7.842;2023-12-20T15:52:50;98982.31;;;6.31;98.41
929;BME280;451;47.988;7.842;2023-12-20T16:01:55;98974.97;;;6.16;99.32
929;BME280;451;47.988;7.842;2023-12-20T16:10:58;98948.25;;;6.02;99.82
929;BME280;451;47.988;7.842;2023-12-20T16:20:03;98931.75;;;5.81;100.00
929;BME280;451;47.988;7.842;2023-12-20T16:29:06;98912.53;;;5.82;99.65
929;BME280;451;47.988;7.842;2023-12-20T16:38:10;98957.72;;;6.03;99.87
929;BME280;451;47.988;7.842;2023-12-20T16:47:14;98954.69;;;5.98;100.00
929;BME280;451;47.988;7.842;2023-12-20T16:56:18;98947.63;;;5.89;99.93
929;BME280;451;47.988;7.842;2023-12-20T17:05:21;98964.81;;;5.92;100.00
929;BME280;451;47.988;7.842;2023-12-20T17:14:26;98969.69;;;5.85;100.00
929;BME280;451;47.988;7.842;2023-12-20T17:23:29;98959.69;;;5.69;100.00
929;BME280;451;47.988;7.842;2023-12-20T17:32:33;98953.63;;;5.69;100.00
929;BME280;451;47.988;7.842;2023-12-20T17:41:38;98949.31;;;5.79;100.00
929;BME280;451;47.988;7.842;2023-12-20T17:50:43;98946.19;;;5.85;100.00
929;BME280;451;47.988;7.842;2023-12-20T17:59:46;98937.31;;;5.67;100.00
929;BME280;451;47.988;7.842;2023-12-20T18:08:51;98996.34;;;5.89;100.00
929;BME280;451;47.988;7.842;2023-12-20T18:17:55;98998.09;;;5.99;100.00
929;BME280;451;47.988;7.842;2023-12-20T18:26:59;98996.16;;;6.01;100.00
929;BME280;451;47.988;7.842;2023-12-20T18:36:03;98997.00;;;6.02;100.00
929;BME280;451;47.988;7.842;2023-12-20T18:45:08;99008.69;;;6.07;100.00
929;BME280;451;47.988;7.842;2023-12-20T18:54:11;98969.63;;;6.17;100.00
929;BME280;451;47.988;7.842;2023-12-20T19:03:16;98975.38;;;6.21;100.00
929;BME280;451;47.988;7.842;2023-12-20T19:12:19;98973.06;;;6.18;100.00
929;BME280;451;47.988;7.842;2023-12-20T19:21:23;98964.03;;;6.01;100.00
929;BME280;451;47.988;7.842;2023-12-20T19:30:27;98905.41;;;5.84;100.00
929;BME280;451;47.988;7.842;2023-12-20T19:39:31;98903.88;;;6.02;100.00
929;BME280;451;47.988;7.842;2023-12-20T19:48:36;98890.31;;;6.08;100.00
929;BME280;451;47.988;7.842;2023-12-20T19:57:41;98900.94;;;6.17;100.00
929;BME280;451;47.988;7.842;2023-12-20T20:06:44;98885.50;;;6.14;100.00
929;BME280;451;47.988;7.842;2023-12-20T20:15:48;98887.91;;;6.26;100.00
929;BME280;451;47.988;7.842;2023-12-20T20:24:51;98843.94;;;6.22;100.00
929;BME280;451;47.988;7.842;2023-12-20T20:33:56;98842.41;;;6.19;100.00
929;BME280;451;47.988;7.842;2023-12-20T20:42:59;98828.97;;;6.24;100.00
929;BME280;451;47.988;7.842;2023-12-20T20:52:04;98833.19;;;6.25;100.00
929;BME280;451;47.988;7.842;2023-12-20T21:01:07;98853.72;;;6.39;99.97
929;BME280;451;47.988;7.842;2023-12-20T21:10:11;98860.59;;;6.40;100.00
929;BME280;451;47.988;7.842;2023-12-20T21:19:14;98828.44;;;6.39;100.00
929;BME280;451;47.988;7.842;2023-12-20T21:28:19;98813.88;;;6.37;99.89
929;BME280;451;47.988;7.842;2023-12-20T21:37:22;98837.50;;;6.45;100.00
929;BME280;451;47.988;7.842;2023-12-20T21:46:26;98807.56;;;6.49;99.49
929;BME280;451;47.988;7.842;2023-12-20T21:55:30;98799.44;;;6.52;99.80
929;BME280;451;47.988;7.842;2023-12-20T22:04:35;98786.81;;;6.57;99.56
929;BME280;451;47.988;7.842;2023-12-20T22:13:38;98761.91;;;6.34;99.35
929;BME280;451;47.988;7.842;2023-12-20T22:22:42;98784.59;;;6.62;99.32
929;BME280;451;47.988;7.842;2023-12-20T22:31:45;98772.38;;;6.53;99.26
929;BME280;451;47.988;7.842;2023-12-20T22:40:50;98765.22;;;6.65;100.00
929;BME280;451;47.988;7.842;2023-12-20T22:49:53;98747.91;;;6.54;99.98
929;BME280;451;47.988;7.842;2023-12-20T22:58:57;98741.59;;;6.66;100.00
929;BME280;451;47.988;7.842;2023-12-20T23:08:00;98744.91;;;6.68;99.80
929;BME280;451;47.988;7.842;2023-12-20T23:17:06;98724.25;;;6.65;100.00
929;BME280;451;47.988;7.842;2023-12-20T23:26:09;98683.16;;;6.67;100.00
929;BME280;451;47.988;7.842;2023-12-20T23:35:13;98676.69;;;6.71;100.00
929;BME280;451;47.988;7.842;2023-12-20T23:44:16;98651.53;;;6.70;100.00
929;BME280;451;47.988;7.842;2023-12-20T23:53:21;98636.78;;;6.79;100.00
